Terminal Aerodrome Forecast
Issued by NWS

Home | Current Version | Previous Version | Text Only | Print | Product List | Glossary On
Versions: 1 2 3 4 5 6 7 8 9 10 11 12 13 14 15 16 17 18 19 20 21 22 23 24 25 26 27 28 29 30 31 32 33 34 35
863
FTUS43 KPAH 101532 AAA
TAFOWB
TAF AMD
KOWB 101532Z 1016/1112 29010G15KT P6SM SCT015 BKN025
      TEMPO 1016/1018 SCT025
     FM101800 29010KT P6SM SCT030
     FM110000 27004KT P6SM OVC120
     FM110200 32005KT P6SM BKN025 OVC080=

USA.gov is the U.S. government's official web portal to all federal, state and local government web resources and services.